createdAt,value
2023-03-15T00:00:04.517Z,941.61
2023-03-15T00:05:03.960Z,941.63
2023-03-15T00:10:04.462Z,941.64
2023-03-15T00:15:03.268Z,941.66
2023-03-15T00:20:04.348Z,941.74
2023-03-15T00:25:03.120Z,941.86
2023-03-15T00:30:04.891Z,941.94
2023-03-15T00:35:03.352Z,942.02
2023-03-15T00:40:04.417Z,942.08
2023-03-15T00:45:06.436Z,942.08
2023-03-15T00:50:04.231Z,942.17
2023-03-15T00:55:03.583Z,942.21
2023-03-15T01:00:04.176Z,942.23
2023-03-15T01:05:03.319Z,942.21
2023-03-15T01:10:04.489Z,942.17
2023-03-15T01:15:04.313Z,942.17
2023-03-15T01:20:04.160Z,942.19
2023-03-15T01:25:03.372Z,942.21
2023-03-15T01:30:03.914Z,942.19
2023-03-15T01:35:03.268Z,942.19
2023-03-15T01:40:05.299Z,942.21
2023-03-15T01:45:03.273Z,942.25
2023-03-15T01:50:05.250Z,942.29
2023-03-15T01:55:04.262Z,942.27
2023-03-15T02:00:04.121Z,942.23
2023-03-15T02:05:03.104Z,942.27
2023-03-15T02:10:03.955Z,942.27
2023-03-15T02:15:03.426Z,942.23
2023-03-15T02:20:03.965Z,942.25
2023-03-15T02:25:03.274Z,942.21
2023-03-15T02:30:04.206Z,942.11
2023-03-15T02:35:03.165Z,942.06
2023-03-15T02:40:04.040Z,942.08
2023-03-15T02:45:03.182Z,942.02
2023-03-15T02:50:04.064Z,942.02
2023-03-15T02:55:03.270Z,942.06
2023-03-15T03:00:04.140Z,942.10
2023-03-15T03:05:03.119Z,942.15
2023-03-15T03:10:04.024Z,942.15
2023-03-15T03:15:03.149Z,942.17
2023-03-15T03:20:04.131Z,942.15
2023-03-15T03:25:03.264Z,942.08
2023-03-15T03:30:05.150Z,942.06
2023-03-15T03:35:03.313Z,942.02
2023-03-15T03:40:04.129Z,942.00
2023-03-15T03:45:03.170Z,942.10
2023-03-15T03:50:04.337Z,942.13
2023-03-15T03:55:03.089Z,942.17
2023-03-15T04:00:04.137Z,942.27
2023-03-15T04:05:03.121Z,942.29
2023-03-15T04:10:05.536Z,942.31
2023-03-15T04:15:03.152Z,942.27
2023-03-15T04:20:04.012Z,942.23
2023-03-15T04:25:03.264Z,942.23
2023-03-15T04:30:03.961Z,942.23
2023-03-15T04:35:03.130Z,942.15
2023-03-15T04:40:04.019Z,942.17
2023-03-15T04:45:03.173Z,942.19
2023-03-15T04:50:04.133Z,942.19
2023-03-15T04:55:03.355Z,942.15
2023-03-15T05:00:04.008Z,942.10
2023-03-15T05:05:03.075Z,942.13
2023-03-15T05:10:05.043Z,942.06
2023-03-15T05:15:03.259Z,942.00
2023-03-15T05:20:04.082Z,942.02
2023-03-15T05:25:03.225Z,941.94
2023-03-15T05:30:04.017Z,941.94
2023-03-15T05:35:03.094Z,941.88
2023-03-15T05:40:09.061Z,941.88
2023-03-15T05:45:03.118Z,941.92
2023-03-15T05:50:04.099Z,941.94
2023-03-15T05:55:03.294Z,941.94
2023-03-15T06:00:04.144Z,941.96
2023-03-15T06:05:03.311Z,941.94
2023-03-15T06:10:05.134Z,941.96
2023-03-15T06:15:06.664Z,941.90
2023-03-15T06:20:07.090Z,941.82
2023-03-15T06:25:03.195Z,941.70
2023-03-15T06:30:04.619Z,941.70
2023-03-15T06:35:03.206Z,941.72
2023-03-15T06:40:04.141Z,941.68
2023-03-15T06:45:03.322Z,941.68
2023-03-15T06:50:04.434Z,941.66
2023-03-15T06:55:03.326Z,941.64
2023-03-15T07:00:04.221Z,941.63
2023-03-15T07:05:03.229Z,941.64
2023-03-15T07:10:04.097Z,941.63
2023-03-15T07:15:03.282Z,941.66
2023-03-15T07:20:04.219Z,941.63
2023-03-15T07:25:03.542Z,941.64
2023-03-15T07:30:04.260Z,941.68
2023-03-15T07:35:03.283Z,941.70
2023-03-15T07:40:04.316Z,941.76
2023-03-15T07:45:03.344Z,941.82
2023-03-15T07:50:04.123Z,941.90
2023-03-15T07:55:03.380Z,941.92
2023-03-15T08:00:04.189Z,941.94
2023-03-15T08:05:03.167Z,942.00
2023-03-15T08:10:04.080Z,941.96
2023-03-15T08:15:03.425Z,941.98
2023-03-15T08:20:04.179Z,941.92
2023-03-15T08:25:03.406Z,941.90
2023-03-15T08:30:04.223Z,941.92
2023-03-15T08:35:03.451Z,942.00
2023-03-15T08:40:04.149Z,942.04
2023-03-15T08:45:03.322Z,942.08
2023-03-15T08:50:04.197Z,942.08
2023-03-15T08:55:03.350Z,942.10
2023-03-15T09:00:04.224Z,942.13
2023-03-15T09:05:03.213Z,942.17
2023-03-15T09:10:05.542Z,942.15
2023-03-15T09:15:03.273Z,942.25
2023-03-15T09:20:04.392Z,942.23
2023-03-15T09:25:03.464Z,942.27
2023-03-15T09:30:09.219Z,942.29
2023-03-15T09:35:03.230Z,942.29
2023-03-15T09:40:04.287Z,942.35
2023-03-15T09:45:03.422Z,942.37
2023-03-15T09:50:04.440Z,942.39
2023-03-15T09:55:04.340Z,942.43
2023-03-15T10:00:04.220Z,942.57
2023-03-15T10:05:03.204Z,942.59
2023-03-15T10:10:04.295Z,942.65
2023-03-15T10:15:03.257Z,942.70
2023-03-15T10:20:04.192Z,942.76
2023-03-15T10:25:03.361Z,942.86
2023-03-15T10:30:04.210Z,942.94
2023-03-15T10:35:04.264Z,943.02
2023-03-15T10:40:04.326Z,943.18
2023-03-15T10:45:03.282Z,943.23
2023-03-15T10:50:04.143Z,943.31
2023-03-15T10:55:04.499Z,943.33
2023-03-15T11:00:04.205Z,943.33
2023-03-15T11:05:03.184Z,943.39
2023-03-15T11:10:09.350Z,943.45
2023-03-15T11:15:03.287Z,943.59
2023-03-15T11:20:04.325Z,943.65
2023-03-15T11:25:03.486Z,943.74
2023-03-15T11:30:04.236Z,943.78
2023-03-15T11:35:03.209Z,943.82
2023-03-15T11:40:11.472Z,943.80
2023-03-15T11:45:03.268Z,943.78
2023-03-15T11:50:04.149Z,943.78
2023-03-15T11:55:03.459Z,943.78
2023-03-15T12:00:04.574Z,943.82
2023-03-15T12:05:12.535Z,943.82
2023-03-15T12:10:06.533Z,943.82
2023-03-15T12:15:03.334Z,943.82
2023-03-15T12:20:04.514Z,943.84
2023-03-15T12:25:04.340Z,943.90
2023-03-15T12:30:04.324Z,943.94
2023-03-15T12:35:03.168Z,943.96
2023-03-15T12:40:05.374Z,943.96
2023-03-15T12:45:03.240Z,943.98
2023-03-15T12:50:04.335Z,943.98
2023-03-15T12:55:03.297Z,944.00
2023-03-15T13:00:04.775Z,944.00
2023-03-15T13:05:03.121Z,944.02
2023-03-15T13:10:04.123Z,944.06
2023-03-15T13:15:03.484Z,944.00
2023-03-15T13:20:04.470Z,943.90
2023-03-15T13:25:03.320Z,943.94
2023-03-15T13:30:04.249Z,943.90
2023-03-15T13:35:03.441Z,943.92
2023-03-15T13:40:04.335Z,943.96
2023-03-15T13:45:03.215Z,943.94
2023-03-15T13:50:04.398Z,943.98
2023-03-15T13:55:03.349Z,943.94
2023-03-15T14:00:04.229Z,943.94
2023-03-15T14:05:03.282Z,943.88
2023-03-15T14:10:04.260Z,943.80
2023-03-15T14:15:03.259Z,943.74
2023-03-15T14:20:04.356Z,943.76
2023-03-15T14:25:03.534Z,943.72
2023-03-15T14:30:04.456Z,943.66
2023-03-15T14:35:03.432Z,943.66
2023-03-15T14:40:04.286Z,943.61
2023-03-15T14:45:03.270Z,943.51
2023-03-15T14:50:04.218Z,943.59
2023-03-15T14:55:03.286Z,943.45
2023-03-15T15:00:04.278Z,943.45
2023-03-15T15:05:03.417Z,943.43
2023-03-15T15:10:04.280Z,943.39
2023-03-15T15:15:03.243Z,943.37
2023-03-15T15:20:04.355Z,943.29
2023-03-15T15:25:03.342Z,943.27
2023-03-15T15:30:04.220Z,943.18
2023-03-15T15:35:03.343Z,943.10
2023-03-15T15:40:04.382Z,943.06
2023-03-15T15:45:03.336Z,943.04
2023-03-15T15:50:04.377Z,943.00
2023-03-15T15:55:03.307Z,942.88
2023-03-15T16:00:03.997Z,942.82
2023-03-15T16:05:03.243Z,942.78
2023-03-15T16:10:04.293Z,942.70
2023-03-15T16:15:03.381Z,942.66
2023-03-15T16:20:04.369Z,942.68
2023-03-15T16:25:03.360Z,942.61
2023-03-15T16:30:05.258Z,942.47
2023-03-15T16:35:03.193Z,942.35
2023-03-15T16:40:04.322Z,942.21
2023-03-15T16:45:03.300Z,942.08
2023-03-15T16:50:04.138Z,941.92
2023-03-15T16:55:03.364Z,941.80
2023-03-15T17:00:05.336Z,941.72
2023-03-15T17:05:03.372Z,941.74
2023-03-15T17:10:04.248Z,941.72
2023-03-15T17:15:03.345Z,941.66
2023-03-15T17:20:04.556Z,941.57
2023-03-15T17:25:03.347Z,941.47
2023-03-15T17:30:04.163Z,941.41
2023-03-15T17:35:03.400Z,941.41
2023-03-15T17:40:04.291Z,941.29
2023-03-15T17:45:03.323Z,941.25
2023-03-15T17:50:04.302Z,941.13
2023-03-15T17:55:03.500Z,941.06
2023-03-15T18:00:04.213Z,940.86
2023-03-15T18:05:03.237Z,940.78
2023-03-15T18:10:04.253Z,940.70
2023-03-15T18:15:03.296Z,940.61
2023-03-15T18:20:04.340Z,940.55
2023-03-15T18:25:03.408Z,940.49
2023-03-15T18:30:04.416Z,940.41
2023-03-15T18:35:03.166Z,940.43
2023-03-15T18:40:04.194Z,940.39
2023-03-15T18:45:03.301Z,940.29
2023-03-15T18:50:10.304Z,940.21
2023-03-15T18:55:03.290Z,940.19
2023-03-15T19:00:06.782Z,940.17
2023-03-15T19:05:03.232Z,940.13
2023-03-15T19:10:04.244Z,940.13
2023-03-15T19:15:03.225Z,940.09
2023-03-15T19:20:04.583Z,940.08
2023-03-15T19:25:03.302Z,940.08
2023-03-15T19:30:09.252Z,940.15
2023-03-15T19:35:03.206Z,940.23
2023-03-15T19:40:04.254Z,940.15
2023-03-15T19:45:03.255Z,940.11
2023-03-15T19:50:04.366Z,940.11
2023-03-15T19:55:03.405Z,940.15
2023-03-15T20:00:04.210Z,940.17
2023-03-15T20:05:03.344Z,940.21
2023-03-15T20:10:04.367Z,940.21
2023-03-15T20:15:03.389Z,940.27
2023-03-15T20:20:04.319Z,940.27
2023-03-15T20:25:03.325Z,940.31
2023-03-15T20:30:05.722Z,940.33
2023-03-15T20:35:03.411Z,940.37
2023-03-15T20:40:04.242Z,940.35
2023-03-15T20:45:03.257Z,940.31
2023-03-15T20:50:04.357Z,940.29
2023-03-15T20:55:03.306Z,940.31
2023-03-15T21:00:04.495Z,940.23
2023-03-15T21:05:03.390Z,940.27
2023-03-15T21:10:03.983Z,940.41
2023-03-15T21:15:04.283Z,940.45
2023-03-15T21:20:04.330Z,940.39
2023-03-15T21:25:03.436Z,940.39
2023-03-15T21:30:04.467Z,940.35
2023-03-15T21:35:03.317Z,940.35
2023-03-15T21:40:05.297Z,940.33
2023-03-15T21:45:03.444Z,940.35
2023-03-15T21:50:04.596Z,940.35
2023-03-15T21:55:03.458Z,940.35
2023-03-15T22:00:04.538Z,940.33
2023-03-15T22:05:03.448Z,940.35
2023-03-15T22:10:04.281Z,940.43
2023-03-15T22:15:06.526Z,940.51
2023-03-15T22:20:04.714Z,940.55
2023-03-15T22:25:03.393Z,940.64
2023-03-15T22:30:04.658Z,940.64
2023-03-15T22:35:03.513Z,940.66
2023-03-15T22:40:04.271Z,940.72
2023-03-15T22:45:03.263Z,940.82
2023-03-15T22:50:04.437Z,940.92
2023-03-15T22:55:03.356Z,941.04
2023-03-15T23:00:05.580Z,941.19
2023-03-15T23:05:03.595Z,941.31
2023-03-15T23:10:09.279Z,941.41
2023-03-15T23:15:04.298Z,941.43
2023-03-15T23:20:04.352Z,941.57
2023-03-15T23:25:03.353Z,941.66
2023-03-15T23:30:04.491Z,941.78
2023-03-15T23:35:03.401Z,941.84
2023-03-15T23:40:04.668Z,941.98
2023-03-15T23:45:03.377Z,942.06
2023-03-15T23:50:05.323Z,942.13
2023-03-15T23:55:03.395Z,942.11
